sensor_id;sensor_type;location;lat;lon;timestamp;P1;durP1;ratioP1;P2;durP2;ratioP2
3881;SDS011;1956;53.482;10.238;2023-01-01T00:03:43;13.43;;;5.97;;
3881;SDS011;1956;53.482;10.238;2023-01-01T00:08:43;18.50;;;5.10;;
3881;SDS011;1956;53.482;10.238;2023-01-01T00:13:44;19.67;;;6.20;;
3881;SDS011;1956;53.482;10.238;2023-01-01T00:18:44;18.23;;;5.07;;
3881;SDS011;1956;53.482;10.238;2023-01-01T00:23:44;16.23;;;5.33;;
3881;SDS011;1956;53.482;10.238;2023-01-01T00:28:45;8.10;;;3.67;;
3881;SDS011;1956;53.482;10.238;2023-01-01T00:33:50;14.53;;;4.20;;
3881;SDS011;1956;53.482;10.238;2023-01-01T00:38:52;8.97;;;3.97;;
3881;SDS011;1956;53.482;10.238;2023-01-01T00:43:52;14.60;;;4.37;;
3881;SDS011;1956;53.482;10.238;2023-01-01T00:48:53;24.93;;;4.17;;
3881;SDS011;1956;53.482;10.238;2023-01-01T00:53:53;11.20;;;4.00;;
3881;SDS011;1956;53.482;10.238;2023-01-01T00:58:53;10.53;;;4.27;;
3881;SDS011;1956;53.482;10.238;2023-01-01T01:03:54;9.83;;;3.97;;
3881;SDS011;1956;53.482;10.238;2023-01-01T01:08:54;12.67;;;4.03;;
3881;SDS011;1956;53.482;10.238;2023-01-01T01:13:55;17.23;;;4.30;;
3881;SDS011;1956;53.482;10.238;2023-01-01T01:18:57;12.60;;;4.23;;
3881;SDS011;1956;53.482;10.238;2023-01-01T01:24:00;9.50;;;3.60;;
3881;SDS011;1956;53.482;10.238;2023-01-01T01:29:01;8.60;;;4.00;;
3881;SDS011;1956;53.482;10.238;2023-01-01T01:34:01;12.70;;;3.33;;
3881;SDS011;1956;53.482;10.238;2023-01-01T01:39:02;12.73;;;4.03;;
3881;SDS011;1956;53.482;10.238;2023-01-01T01:44:05;5.67;;;3.07;;
3881;SDS011;1956;53.482;10.238;2023-01-01T01:49:26;14.20;;;4.13;;
3881;SDS011;1956;53.482;10.238;2023-01-01T01:54:29;15.63;;;4.50;;
3881;SDS011;1956;53.482;10.238;2023-01-01T01:59:40;14.50;;;3.70;;
3881;SDS011;1956;53.482;10.238;2023-01-01T02:04:42;17.47;;;3.93;;
3881;SDS011;1956;53.482;10.238;2023-01-01T02:09:42;12.67;;;5.43;;
3881;SDS011;1956;53.482;10.238;2023-01-01T02:14:43;19.80;;;4.70;;
3881;SDS011;1956;53.482;10.238;2023-01-01T02:25:36;9.60;;;3.97;;
3881;SDS011;1956;53.482;10.238;2023-01-01T02:31:09;9.77;;;4.13;;
3881;SDS011;1956;53.482;10.238;2023-01-01T02:36:11;10.93;;;3.80;;
3881;SDS011;1956;53.482;10.238;2023-01-01T02:46:34;17.23;;;4.23;;
3881;SDS011;1956;53.482;10.238;2023-01-01T03:03:14;11.07;;;3.93;;
3881;SDS011;1956;53.482;10.238;2023-01-01T03:08:45;8.03;;;4.20;;
3881;SDS011;1956;53.482;10.238;2023-01-01T03:14:02;12.20;;;3.93;;
3881;SDS011;1956;53.482;10.238;2023-01-01T03:19:15;11.20;;;4.60;;
3881;SDS011;1956;53.482;10.238;2023-01-01T03:24:25;18.40;;;5.20;;
3881;SDS011;1956;53.482;10.238;2023-01-01T03:29:30;13.47;;;4.03;;
3881;SDS011;1956;53.482;10.238;2023-01-01T03:34:33;10.50;;;4.30;;
3881;SDS011;1956;53.482;10.238;2023-01-01T03:39:40;12.30;;;5.67;;
3881;SDS011;1956;53.482;10.238;2023-01-01T03:44:54;7.80;;;4.77;;
3881;SDS011;1956;53.482;10.238;2023-01-01T03:50:00;8.90;;;4.90;;
3881;SDS011;1956;53.482;10.238;2023-01-01T03:55:11;6.30;;;4.57;;
3881;SDS011;1956;53.482;10.238;2023-01-01T04:00:33;16.80;;;4.40;;
3881;SDS011;1956;53.482;10.238;2023-01-01T04:05:35;12.10;;;4.83;;
3881;SDS011;1956;53.482;10.238;2023-01-01T04:10:38;9.57;;;4.40;;
3881;SDS011;1956;53.482;10.238;2023-01-01T04:15:41;9.63;;;4.70;;
3881;SDS011;1956;53.482;10.238;2023-01-01T04:20:41;7.83;;;4.63;;
3881;SDS011;1956;53.482;10.238;2023-01-01T04:25:42;11.00;;;5.27;;
3881;SDS011;1956;53.482;10.238;2023-01-01T04:30:42;6.93;;;4.90;;
3881;SDS011;1956;53.482;10.238;2023-01-01T04:35:42;12.10;;;5.00;;
3881;SDS011;1956;53.482;10.238;2023-01-01T04:40:43;13.03;;;5.40;;
3881;SDS011;1956;53.482;10.238;2023-01-01T04:45:43;7.80;;;4.60;;
3881;SDS011;1956;53.482;10.238;2023-01-01T04:50:43;11.97;;;4.77;;
3881;SDS011;1956;53.482;10.238;2023-01-01T04:55:44;19.03;;;4.47;;
3881;SDS011;1956;53.482;10.238;2023-01-01T05:00:48;10.43;;;4.10;;
3881;SDS011;1956;53.482;10.238;2023-01-01T05:06:02;8.53;;;4.60;;
3881;SDS011;1956;53.482;10.238;2023-01-01T05:11:05;8.90;;;5.07;;
3881;SDS011;1956;53.482;10.238;2023-01-01T05:16:09;13.90;;;4.63;;
3881;SDS011;1956;53.482;10.238;2023-01-01T05:21:14;8.47;;;3.97;;
3881;SDS011;1956;53.482;10.238;2023-01-01T05:26:18;5.90;;;3.80;;
3881;SDS011;1956;53.482;10.238;2023-01-01T05:31:21;13.97;;;3.97;;
3881;SDS011;1956;53.482;10.238;2023-01-01T05:36:23;11.70;;;3.90;;
3881;SDS011;1956;53.482;10.238;2023-01-01T05:41:28;15.00;;;4.13;;
3881;SDS011;1956;53.482;10.238;2023-01-01T05:46:30;5.43;;;3.33;;
3881;SDS011;1956;53.482;10.238;2023-01-01T05:51:30;12.63;;;3.13;;
3881;SDS011;1956;53.482;10.238;2023-01-01T05:56:31;10.47;;;3.30;;
3881;SDS011;1956;53.482;10.238;2023-01-01T06:01:32;7.60;;;3.70;;
3881;SDS011;1956;53.482;10.238;2023-01-01T06:06:33;11.10;;;3.97;;
3881;SDS011;1956;53.482;10.238;2023-01-01T06:11:34;10.50;;;4.20;;
3881;SDS011;1956;53.482;10.238;2023-01-01T06:16:34;10.40;;;3.17;;
3881;SDS011;1956;53.482;10.238;2023-01-01T06:21:34;8.80;;;3.10;;
3881;SDS011;1956;53.482;10.238;2023-01-01T06:26:35;10.97;;;3.87;;
3881;SDS011;1956;53.482;10.238;2023-01-01T06:31:35;9.60;;;3.90;;
3881;SDS011;1956;53.482;10.238;2023-01-01T06:36:35;6.60;;;2.60;;
3881;SDS011;1956;53.482;10.238;2023-01-01T06:41:36;8.30;;;2.80;;
3881;SDS011;1956;53.482;10.238;2023-01-01T06:46:36;5.80;;;2.60;;
3881;SDS011;1956;53.482;10.238;2023-01-01T06:51:38;7.47;;;2.50;;
3881;SDS011;1956;53.482;10.238;2023-01-01T06:56:39;7.47;;;2.33;;
3881;SDS011;1956;53.482;10.238;2023-01-01T07:01:40;5.53;;;2.73;;
3881;SDS011;1956;53.482;10.238;2023-01-01T07:06:40;7.70;;;2.27;;
3881;SDS011;1956;53.482;10.238;2023-01-01T07:11:41;3.60;;;2.10;;
3881;SDS011;1956;53.482;10.238;2023-01-01T07:16:41;10.30;;;2.40;;
3881;SDS011;1956;53.482;10.238;2023-01-01T07:21:43;3.70;;;2.20;;
3881;SDS011;1956;53.482;10.238;2023-01-01T07:26:44;12.53;;;2.50;;
3881;SDS011;1956;53.482;10.238;2023-01-01T07:31:44;3.30;;;1.70;;
3881;SDS011;1956;53.482;10.238;2023-01-01T07:36:45;7.33;;;2.30;;
3881;SDS011;1956;53.482;10.238;2023-01-01T07:41:45;6.80;;;2.60;;
3881;SDS011;1956;53.482;10.238;2023-01-01T07:46:46;9.97;;;2.50;;
3881;SDS011;1956;53.482;10.238;2023-01-01T07:51:46;3.80;;;1.70;;
3881;SDS011;1956;53.482;10.238;2023-01-01T07:56:46;7.53;;;2.03;;
3881;SDS011;1956;53.482;10.238;2023-01-01T08:01:47;7.77;;;2.53;;
3881;SDS011;1956;53.482;10.238;2023-01-01T08:06:47;7.75;;;1.70;;
3881;SDS011;1956;53.482;10.238;2023-01-01T08:11:47;2.50;;;1.60;;
3881;SDS011;1956;53.482;10.238;2023-01-01T08:16:48;14.93;;;2.17;;
3881;SDS011;1956;53.482;10.238;2023-01-01T08:21:48;5.10;;;2.10;;
3881;SDS011;1956;53.482;10.238;2023-01-01T08:26:49;13.67;;;2.10;;
3881;SDS011;1956;53.482;10.238;2023-01-01T08:31:49;6.40;;;1.90;;
3881;SDS011;1956;53.482;10.238;2023-01-01T08:36:49;7.53;;;2.10;;
3881;SDS011;1956;53.482;10.238;2023-01-01T08:41:50;3.87;;;1.73;;
3881;SDS011;1956;53.482;10.238;2023-01-01T08:46:53;2.33;;;1.47;;
3881;SDS011;1956;53.482;10.238;2023-01-01T08:51:54;6.57;;;1.97;;
3881;SDS011;1956;53.482;10.238;2023-01-01T08:56:54;12.40;;;1.93;;
3881;SDS011;1956;53.482;10.238;2023-01-01T09:01:54;5.00;;;1.53;;
3881;SDS011;1956;53.482;10.238;2023-01-01T09:06:55;4.73;;;1.43;;
3881;SDS011;1956;53.482;10.238;2023-01-01T09:11:56;5.17;;;1.47;;
3881;SDS011;1956;53.482;10.238;2023-01-01T09:17:03;4.93;;;1.30;;
3881;SDS011;1956;53.482;10.238;2023-01-01T09:22:03;3.13;;;1.40;;
3881;SDS011;1956;53.482;10.238;2023-01-01T09:27:03;2.70;;;1.20;;
3881;SDS011;1956;53.482;10.238;2023-01-01T09:32:04;4.83;;;1.47;;
3881;SDS011;1956;53.482;10.238;2023-01-01T09:37:04;5.78;;;1.17;;
3881;SDS011;1956;53.482;10.238;2023-01-01T09:47:44;1.60;;;1.20;;
3881;SDS011;1956;53.482;10.238;2023-01-01T09:52:59;7.77;;;2.10;;
3881;SDS011;1956;53.482;10.238;2023-01-01T09:58:00;5.73;;;1.57;;
3881;SDS011;1956;53.482;10.238;2023-01-01T10:08:44;6.97;;;2.87;;
3881;SDS011;1956;53.482;10.238;2023-01-01T10:13:52;8.13;;;1.60;;
3881;SDS011;1956;53.482;10.238;2023-01-01T10:18:58;3.63;;;1.70;;
3881;SDS011;1956;53.482;10.238;2023-01-01T10:29:40;5.23;;;1.50;;
3881;SDS011;1956;53.482;10.238;2023-01-01T10:34:43;3.47;;;1.50;;
3881;SDS011;1956;53.482;10.238;2023-01-01T10:39:43;4.23;;;1.40;;
3881;SDS011;1956;53.482;10.238;2023-01-01T10:44:45;4.10;;;1.40;;
3881;SDS011;1956;53.482;10.238;2023-01-01T10:49:56;5.20;;;1.47;;
3881;SDS011;1956;53.482;10.238;2023-01-01T10:55:00;7.20;;;1.00;;
3881;SDS011;1956;53.482;10.238;2023-01-01T11:00:15;4.67;;;1.00;;
3881;SDS011;1956;53.482;10.238;2023-01-01T11:05:23;2.10;;;0.73;;
3881;SDS011;1956;53.482;10.238;2023-01-01T11:10:23;3.17;;;0.93;;
3881;SDS011;1956;53.482;10.238;2023-01-01T11:15:38;2.57;;;0.73;;
3881;SDS011;1956;53.482;10.238;2023-01-01T11:20:40;2.73;;;0.87;;
3881;SDS011;1956;53.482;10.238;2023-01-01T11:25:41;2.27;;;0.90;;
3881;SDS011;1956;53.482;10.238;2023-01-01T11:31:00;4.17;;;1.10;;
3881;SDS011;1956;53.482;10.238;2023-01-01T11:36:03;2.07;;;1.57;;
3881;SDS011;1956;53.482;10.238;2023-01-01T11:41:04;3.07;;;1.10;;
3881;SDS011;1956;53.482;10.238;2023-01-01T11:46:06;1.53;;;0.83;;
3881;SDS011;1956;53.482;10.238;2023-01-01T11:51:09;6.00;;;0.87;;
3881;SDS011;1956;53.482;10.238;2023-01-01T11:56:20;11.00;;;1.20;;
3881;SDS011;1956;53.482;10.238;2023-01-01T12:01:24;1.80;;;0.80;;
3881;SDS011;1956;53.482;10.238;2023-01-01T12:06:31;2.10;;;0.63;;
3881;SDS011;1956;53.482;10.238;2023-01-01T12:23:25;3.33;;;1.00;;
3881;SDS011;1956;53.482;10.238;2023-01-01T12:28:42;3.20;;;0.90;;
3881;SDS011;1956;53.482;10.238;2023-01-01T12:33:53;4.13;;;1.00;;
3881;SDS011;1956;53.482;10.238;2023-01-01T12:56:21;2.73;;;0.83;;
3881;SDS011;1956;53.482;10.238;2023-01-01T13:01:24;6.33;;;1.10;;
3881;SDS011;1956;53.482;10.238;2023-01-01T13:06:30;1.70;;;0.87;;
3881;SDS011;1956;53.482;10.238;2023-01-01T13:11:56;7.80;;;2.20;;
3881;SDS011;1956;53.482;10.238;2023-01-01T13:17:01;13.03;;;1.67;;
3881;SDS011;1956;53.482;10.238;2023-01-01T13:33:26;9.23;;;1.40;;
3881;SDS011;1956;53.482;10.238;2023-01-01T13:38:51;5.63;;;1.20;;
3881;SDS011;1956;53.482;10.238;2023-01-01T13:49:19;4.20;;;2.10;;
3881;SDS011;1956;53.482;10.238;2023-01-01T14:00:20;5.63;;;1.40;;
3881;SDS011;1956;53.482;10.238;2023-01-01T14:05:24;12.30;;;1.20;;
3881;SDS011;1956;53.482;10.238;2023-01-01T14:10:29;4.67;;;1.43;;
3881;SDS011;1956;53.482;10.238;2023-01-01T14:15:37;3.43;;;0.97;;
3881;SDS011;1956;53.482;10.238;2023-01-01T14:20:40;6.37;;;1.53;;
3881;SDS011;1956;53.482;10.238;2023-01-01T14:25:42;8.07;;;1.90;;
3881;SDS011;1956;53.482;10.238;2023-01-01T14:30:43;4.80;;;1.40;;
3881;SDS011;1956;53.482;10.238;2023-01-01T14:35:49;5.60;;;1.53;;
3881;SDS011;1956;53.482;10.238;2023-01-01T14:40:58;4.13;;;1.40;;
3881;SDS011;1956;53.482;10.238;2023-01-01T14:46:25;8.20;;;1.80;;
3881;SDS011;1956;53.482;10.238;2023-01-01T14:51:26;10.90;;;1.70;;
3881;SDS011;1956;53.482;10.238;2023-01-01T14:56:29;7.17;;;1.83;;
3881;SDS011;1956;53.482;10.238;2023-01-01T15:01:31;8.47;;;2.00;;
3881;SDS011;1956;53.482;10.238;2023-01-01T15:06:32;10.87;;;1.80;;
3881;SDS011;1956;53.482;10.238;2023-01-01T15:11:32;6.07;;;1.77;;
3881;SDS011;1956;53.482;10.238;2023-01-01T15:16:35;5.73;;;1.93;;
3881;SDS011;1956;53.482;10.238;2023-01-01T15:21:36;5.27;;;2.30;;
3881;SDS011;1956;53.482;10.238;2023-01-01T15:26:53;10.03;;;2.20;;
3881;SDS011;1956;53.482;10.238;2023-01-01T15:31:58;25.53;;;12.00;;
3881;SDS011;1956;53.482;10.238;2023-01-01T15:42:35;22.63;;;7.87;;
3881;SDS011;1956;53.482;10.238;2023-01-01T15:47:37;10.87;;;5.70;;
3881;SDS011;1956;53.482;10.238;2023-01-01T15:52:37;7.03;;;2.93;;
3881;SDS011;1956;53.482;10.238;2023-01-01T15:57:44;7.47;;;2.57;;
3881;SDS011;1956;53.482;10.238;2023-01-01T16:02:46;10.63;;;2.97;;
3881;SDS011;1956;53.482;10.238;2023-01-01T16:07:55;8.50;;;2.40;;
3881;SDS011;1956;53.482;10.238;2023-01-01T16:12:57;6.97;;;2.87;;
3881;SDS011;1956;53.482;10.238;2023-01-01T16:17:58;5.20;;;1.90;;
3881;SDS011;1956;53.482;10.238;2023-01-01T16:22:58;15.10;;;2.40;;
3881;SDS011;1956;53.482;10.238;2023-01-01T16:27:58;9.03;;;2.40;;
3881;SDS011;1956;53.482;10.238;2023-01-01T16:32:59;5.90;;;2.30;;
3881;SDS011;1956;53.482;10.238;2023-01-01T16:37:59;13.60;;;3.50;;
3881;SDS011;1956;53.482;10.238;2023-01-01T16:42:59;19.10;;;4.30;;
3881;SDS011;1956;53.482;10.238;2023-01-01T16:48:00;11.20;;;4.00;;
3881;SDS011;1956;53.482;10.238;2023-01-01T16:53:00;8.40;;;3.00;;
3881;SDS011;1956;53.482;10.238;2023-01-01T16:58:01;7.53;;;3.10;;
3881;SDS011;1956;53.482;10.238;2023-01-01T17:03:01;7.87;;;3.77;;
3881;SDS011;1956;53.482;10.238;2023-01-01T17:08:01;8.47;;;3.20;;
3881;SDS011;1956;53.482;10.238;2023-01-01T17:13:02;6.30;;;2.47;;
3881;SDS011;1956;53.482;10.238;2023-01-01T17:18:02;7.43;;;2.40;;
3881;SDS011;1956;53.482;10.238;2023-01-01T17:23:03;6.80;;;3.47;;
3881;SDS011;1956;53.482;10.238;2023-01-01T17:28:03;7.03;;;2.80;;
3881;SDS011;1956;53.482;10.238;2023-01-01T17:33:04;15.70;;;3.43;;
3881;SDS011;1956;53.482;10.238;2023-01-01T17:38:04;5.33;;;3.40;;
3881;SDS011;1956;53.482;10.238;2023-01-01T17:43:05;11.80;;;2.70;;
3881;SDS011;1956;53.482;10.238;2023-01-01T17:48:05;12.20;;;3.50;;
3881;SDS011;1956;53.482;10.238;2023-01-01T17:53:05;12.53;;;3.50;;
3881;SDS011;1956;53.482;10.238;2023-01-01T17:58:06;10.30;;;3.67;;
3881;SDS011;1956;53.482;10.238;2023-01-01T18:03:10;10.60;;;4.03;;
3881;SDS011;1956;53.482;10.238;2023-01-01T18:08:13;12.80;;;4.93;;
3881;SDS011;1956;53.482;10.238;2023-01-01T18:13:14;15.50;;;5.77;;
3881;SDS011;1956;53.482;10.238;2023-01-01T18:18:14;9.60;;;5.70;;
3881;SDS011;1956;53.482;10.238;2023-01-01T18:23:15;41.97;;;19.10;;
3881;SDS011;1956;53.482;10.238;2023-01-01T18:28:15;23.83;;;10.30;;
3881;SDS011;1956;53.482;10.238;2023-01-01T18:33:15;21.70;;;9.50;;
3881;SDS011;1956;53.482;10.238;2023-01-01T18:38:16;44.53;;;21.73;;
3881;SDS011;1956;53.482;10.238;2023-01-01T18:43:18;29.37;;;14.40;;
3881;SDS011;1956;53.482;10.238;2023-01-01T18:48:22;14.47;;;6.70;;
3881;SDS011;1956;53.482;10.238;2023-01-01T18:53:22;9.10;;;5.73;;
3881;SDS011;1956;53.482;10.238;2023-01-01T18:58:23;16.07;;;6.60;;
3881;SDS011;1956;53.482;10.238;2023-01-01T19:03:24;31.93;;;13.60;;
3881;SDS011;1956;53.482;10.238;2023-01-01T19:08:28;25.20;;;9.97;;
3881;SDS011;1956;53.482;10.238;2023-01-01T19:13:36;21.17;;;10.47;;
3881;SDS011;1956;53.482;10.238;2023-01-01T19:18:40;8.80;;;6.20;;
3881;SDS011;1956;53.482;10.238;2023-01-01T19:23:51;12.70;;;6.60;;
3881;SDS011;1956;53.482;10.238;2023-01-01T19:29:01;16.77;;;5.40;;
3881;SDS011;1956;53.482;10.238;2023-01-01T19:34:12;17.27;;;4.40;;
3881;SDS011;1956;53.482;10.238;2023-01-01T19:39:12;13.60;;;3.97;;
3881;SDS011;1956;53.482;10.238;2023-01-01T19:44:13;7.47;;;3.00;;
3881;SDS011;1956;53.482;10.238;2023-01-01T19:49:13;6.10;;;4.10;;
3881;SDS011;1956;53.482;10.238;2023-01-01T19:54:14;8.27;;;4.57;;
3881;SDS011;1956;53.482;10.238;2023-01-01T19:59:14;6.53;;;4.23;;
3881;SDS011;1956;53.482;10.238;2023-01-01T20:04:14;9.90;;;4.00;;
3881;SDS011;1956;53.482;10.238;2023-01-01T20:09:15;16.40;;;4.97;;
3881;SDS011;1956;53.482;10.238;2023-01-01T20:14:15;11.70;;;5.30;;
3881;SDS011;1956;53.482;10.238;2023-01-01T20:19:16;15.80;;;5.10;;
3881;SDS011;1956;53.482;10.238;2023-01-01T20:24:16;8.33;;;4.70;;
3881;SDS011;1956;53.482;10.238;2023-01-01T20:29:16;14.53;;;5.43;;
3881;SDS011;1956;53.482;10.238;2023-01-01T20:34:20;14.13;;;5.17;;
3881;SDS011;1956;53.482;10.238;2023-01-01T20:39:21;9.40;;;5.00;;
3881;SDS011;1956;53.482;10.238;2023-01-01T20:44:22;11.60;;;5.30;;
3881;SDS011;1956;53.482;10.238;2023-01-01T20:49:22;18.77;;;5.53;;
3881;SDS011;1956;53.482;10.238;2023-01-01T20:54:22;13.60;;;4.10;;
3881;SDS011;1956;53.482;10.238;2023-01-01T20:59:23;8.17;;;4.07;;
3881;SDS011;1956;53.482;10.238;2023-01-01T21:04:23;11.43;;;5.10;;
3881;SDS011;1956;53.482;10.238;2023-01-01T21:09:24;13.40;;;5.13;;
3881;SDS011;1956;53.482;10.238;2023-01-01T21:14:24;11.53;;;4.97;;
3881;SDS011;1956;53.482;10.238;2023-01-01T21:19:24;10.47;;;4.53;;
3881;SDS011;1956;53.482;10.238;2023-01-01T21:24:26;14.43;;;5.77;;
3881;SDS011;1956;53.482;10.238;2023-01-01T21:29:28;11.53;;;4.97;;
3881;SDS011;1956;53.482;10.238;2023-01-01T21:34:33;7.00;;;4.73;;
3881;SDS011;1956;53.482;10.238;2023-01-01T21:39:36;14.13;;;4.63;;
3881;SDS011;1956;53.482;10.238;2023-01-01T21:44:37;16.80;;;5.53;;
3881;SDS011;1956;53.482;10.238;2023-01-01T21:49:37;14.80;;;5.70;;
3881;SDS011;1956;53.482;10.238;2023-01-01T21:54:37;10.20;;;5.10;;
3881;SDS011;1956;53.482;10.238;2023-01-01T21:59:41;19.27;;;4.93;;
3881;SDS011;1956;53.482;10.238;2023-01-01T22:04:47;10.43;;;5.37;;
3881;SDS011;1956;53.482;10.238;2023-01-01T22:09:48;9.60;;;4.47;;
3881;SDS011;1956;53.482;10.238;2023-01-01T22:14:50;14.47;;;4.53;;
3881;SDS011;1956;53.482;10.238;2023-01-01T22:19:51;10.27;;;5.00;;
3881;SDS011;1956;53.482;10.238;2023-01-01T22:24:55;6.57;;;4.43;;
3881;SDS011;1956;53.482;10.238;2023-01-01T22:30:40;10.80;;;4.93;;
3881;SDS011;1956;53.482;10.238;2023-01-01T22:35:39;12.23;;;4.40;;
3881;SDS011;1956;53.482;10.238;2023-01-01T22:40:39;7.07;;;4.03;;
3881;SDS011;1956;53.482;10.238;2023-01-01T22:45:41;9.40;;;4.57;;
3881;SDS011;1956;53.482;10.238;2023-01-01T22:50:42;9.00;;;4.50;;
3881;SDS011;1956;53.482;10.238;2023-01-01T22:55:44;11.40;;;4.73;;
3881;SDS011;1956;53.482;10.238;2023-01-01T23:00:44;11.30;;;4.50;;
3881;SDS011;1956;53.482;10.238;2023-01-01T23:05:45;7.80;;;4.40;;
3881;SDS011;1956;53.482;10.238;2023-01-01T23:10:45;12.47;;;4.30;;
3881;SDS011;1956;53.482;10.238;2023-01-01T23:15:46;10.43;;;3.80;;
3881;SDS011;1956;53.482;10.238;2023-01-01T23:21:02;10.27;;;4.43;;
3881;SDS011;1956;53.482;10.238;2023-01-01T23:26:06;5.03;;;3.40;;
3881;SDS011;1956;53.482;10.238;2023-01-01T23:31:07;6.80;;;4.33;;
3881;SDS011;1956;53.482;10.238;2023-01-01T23:36:08;5.73;;;4.40;;
3881;SDS011;1956;53.482;10.238;2023-01-01T23:41:08;17.10;;;5.10;;
3881;SDS011;1956;53.482;10.238;2023-01-01T23:46:09;11.33;;;5.10;;
3881;SDS011;1956;53.482;10.238;2023-01-01T23:51:10;13.83;;;4.70;;
3881;SDS011;1956;53.482;10.238;2023-01-01T23:56:11;9.27;;;4.50;;
